SZX weather

Shenzhen Bao'an International Airport
Shenzhen, Guangdong Province, China

Public forecast

Using degrees Celsius for public forecast. Weather courtesy of forecast.io.

Current aviation weather report (METAR) for Shenzhen Bao'an International Airport

Retrieved 2020/08/03 08:00 UTC (40 minutes ago):

ZGSZ 030800Z 15002MPS 110V190 8000 -SHRA FEW018 FEW026CB BKN050 26/25 Q1002 NOSIG

Aviation forecast (TAF) for Shenzhen Bao'an International Airport

Retrieved 2020/08/03 06:00 UTC (3 hours ago):

TAF ZGSZ 030313Z 0306/0406 11004MPS 8000 FEW020 SCT040 TX31/0307Z TN26/0322Z TEMPO 0306/0312 3000 SHRA SCT015 FEW020CB TEMPO 0400/0406 SHRA SCT015 FEW020CB